createdAt,value
2023-05-23T00:02:28.436Z,59.34
2023-05-23T00:04:58.030Z,59.27
2023-05-23T00:07:29.010Z,59.44
2023-05-23T00:09:58.674Z,59.20
2023-05-23T00:12:29.202Z,59.17
2023-05-23T00:15:02.423Z,59.76
2023-05-23T00:17:31.589Z,59.35
2023-05-23T00:20:01.054Z,59.67
2023-05-23T00:22:30.162Z,59.88
2023-05-23T00:25:01.646Z,60.00
2023-05-23T00:27:31.722Z,60.12
2023-05-23T00:30:02.702Z,60.61
2023-05-23T00:32:31.743Z,60.29
2023-05-23T00:35:01.159Z,60.43
2023-05-23T00:37:33.660Z,60.58
2023-05-23T00:40:02.814Z,60.52
2023-05-23T00:42:32.632Z,60.52
2023-05-23T00:45:02.733Z,60.59
2023-05-23T00:47:32.622Z,61.02
2023-05-23T00:50:01.630Z,60.86
2023-05-23T00:52:30.879Z,61.01
2023-05-23T00:55:04.250Z,60.72
2023-05-23T00:57:34.790Z,61.26
2023-05-23T01:00:04.013Z,60.82
2023-05-23T01:02:41.070Z,61.25
2023-05-23T01:05:20.191Z,61.00
2023-05-23T01:07:51.193Z,60.94
2023-05-23T01:10:23.958Z,60.74
2023-05-23T01:13:07.341Z,61.07
2023-05-23T01:15:44.129Z,61.15
2023-05-23T01:18:30.144Z,61.65
2023-05-23T01:21:03.636Z,61.36
2023-05-23T01:24:05.306Z,61.35
2023-05-23T01:26:48.637Z,61.43
2023-05-23T01:29:24.838Z,61.46
2023-05-23T01:32:00.837Z,61.56
2023-05-23T01:34:31.420Z,61.58
2023-05-23T01:37:10.644Z,61.71
2023-05-23T01:39:44.418Z,61.51
2023-05-23T01:42:13.848Z,62.09
2023-05-23T01:44:43.400Z,61.86
2023-05-23T01:47:19.777Z,61.89
2023-05-23T01:49:51.039Z,62.14
2023-05-23T01:52:23.892Z,62.31
2023-05-23T01:54:59.268Z,62.22
2023-05-23T01:57:36.069Z,62.32
2023-05-23T02:00:10.480Z,62.30
2023-05-23T02:02:43.501Z,61.93
2023-05-23T02:05:12.982Z,62.52
2023-05-23T02:07:42.014Z,62.33
2023-05-23T02:10:11.886Z,62.49
2023-05-23T02:12:43.273Z,62.66
2023-05-23T02:15:14.461Z,62.60
2023-05-23T02:17:53.482Z,62.71
2023-05-23T02:20:22.782Z,62.81
2023-05-23T02:22:54.760Z,62.86
2023-05-23T02:25:28.353Z,62.89
2023-05-23T02:27:59.532Z,62.93
2023-05-23T02:30:36.133Z,62.68
2023-05-23T02:33:14.625Z,62.87
2023-05-23T02:35:50.386Z,62.93
2023-05-23T02:38:20.185Z,63.19
2023-05-23T02:40:52.961Z,63.33
2023-05-23T02:43:22.214Z,63.24
2023-05-23T02:45:51.298Z,63.44
2023-05-23T02:48:26.426Z,63.39
2023-05-23T02:50:57.273Z,63.53
2023-05-23T02:53:27.338Z,63.80
2023-05-23T02:55:56.684Z,63.64
2023-05-23T02:58:28.166Z,63.58
2023-05-23T03:00:59.016Z,63.78
2023-05-23T03:03:31.383Z,63.57
2023-05-23T03:06:00.609Z,63.90
2023-05-23T03:08:29.861Z,63.84
2023-05-23T03:10:58.762Z,63.90
2023-05-23T03:13:32.363Z,63.77
2023-05-23T03:16:02.413Z,64.05
2023-05-23T03:18:43.399Z,64.02
2023-05-23T03:21:12.752Z,64.01
2023-05-23T03:23:41.931Z,64.16
2023-05-23T03:26:12.391Z,64.19
2023-05-23T03:28:44.444Z,64.18
2023-05-23T03:31:13.293Z,64.27
2023-05-23T03:33:44.732Z,64.65
2023-05-23T03:36:13.808Z,64.04
2023-05-23T03:38:45.433Z,64.19
2023-05-23T03:41:14.495Z,64.38
2023-05-23T03:43:45.444Z,64.49
2023-05-23T03:47:01.350Z,64.38
2023-05-23T03:49:58.606Z,64.67
2023-05-23T03:52:28.352Z,64.55
2023-05-23T03:54:57.589Z,64.64
2023-05-23T03:57:27.188Z,64.61
2023-05-23T03:59:56.843Z,64.94
2023-05-23T04:02:26.097Z,64.86
2023-05-23T04:04:56.586Z,64.50
2023-05-23T04:07:26.843Z,64.26
2023-05-23T04:10:00.144Z,64.75
2023-05-23T04:12:34.053Z,64.74
2023-05-23T04:15:11.011Z,64.98
2023-05-23T04:17:51.114Z,65.24
2023-05-23T04:20:22.138Z,63.48
2023-05-23T04:22:59.119Z,63.67
2023-05-23T04:25:31.135Z,63.40
2023-05-23T04:28:17.304Z,63.20
2023-05-23T04:30:48.854Z,62.97
2023-05-23T04:33:21.197Z,62.58
2023-05-23T04:35:53.048Z,62.02
2023-05-23T04:38:25.141Z,61.64
2023-05-23T04:40:57.392Z,61.72
2023-05-23T04:43:29.562Z,61.59
2023-05-23T04:46:09.657Z,60.18
2023-05-23T04:48:51.472Z,58.95
2023-05-23T04:51:27.496Z,57.73
2023-05-23T04:54:06.459Z,56.32
2023-05-23T04:56:37.979Z,55.12
2023-05-23T04:59:08.241Z,52.45
2023-05-23T05:01:53.091Z,50.71
2023-05-23T05:04:29.028Z,49.48
2023-05-23T05:07:05.841Z,47.80
2023-05-23T05:09:38.173Z,46.64
2023-05-23T05:12:11.167Z,44.56
2023-05-23T05:14:42.423Z,43.52
2023-05-23T05:17:12.432Z,42.09
2023-05-23T05:19:56.447Z,40.86
2023-05-23T05:22:27.443Z,38.98
2023-05-23T05:24:57.167Z,37.78
2023-05-23T05:27:27.839Z,37.99
2023-05-23T05:30:07.468Z,37.56
2023-05-23T05:32:41.693Z,36.75
2023-05-23T05:35:13.518Z,35.57
2023-05-23T05:37:50.468Z,35.09
2023-05-23T05:40:22.824Z,33.53
2023-05-23T05:42:53.054Z,33.82
2023-05-23T05:45:29.739Z,32.61
2023-05-23T05:48:12.378Z,31.52
2023-05-23T05:50:44.808Z,30.91
2023-05-23T05:53:20.064Z,30.83
2023-05-23T05:55:50.348Z,30.07
2023-05-23T05:58:21.644Z,29.49
2023-05-23T06:01:15.058Z,28.67
2023-05-23T06:03:47.916Z,28.43
2023-05-23T06:06:20.349Z,27.97
2023-05-23T06:08:50.397Z,27.05
2023-05-23T06:11:20.043Z,27.22
2023-05-23T06:13:55.127Z,27.29
2023-05-23T06:17:00.489Z,26.37
2023-05-23T06:19:30.892Z,27.22
2023-05-23T06:22:03.586Z,28.31
2023-05-23T06:24:47.169Z,28.95
2023-05-23T06:27:19.690Z,29.45
2023-05-23T06:29:56.402Z,29.93
2023-05-23T06:32:26.547Z,31.02
2023-05-23T06:34:57.515Z,31.30
2023-05-23T06:37:27.059Z,32.07
2023-05-23T06:39:58.233Z,32.26
2023-05-23T06:42:28.409Z,33.19
2023-05-23T06:45:11.123Z,33.42
2023-05-23T06:47:43.312Z,33.55
2023-05-23T06:50:19.637Z,34.24
2023-05-23T06:52:51.330Z,34.53
2023-05-23T06:55:21.309Z,35.12
2023-05-23T06:57:57.851Z,35.41
2023-05-23T07:00:28.777Z,35.66
2023-05-23T07:03:18.809Z,36.06
2023-05-23T07:05:51.296Z,36.33
2023-05-23T07:08:21.951Z,36.15
2023-05-23T07:10:58.830Z,36.55
2023-05-23T07:13:37.048Z,36.49
2023-05-23T07:16:07.149Z,37.01
2023-05-23T07:18:39.418Z,36.92
2023-05-23T07:21:08.654Z,37.05
2023-05-23T07:23:40.900Z,37.25
2023-05-23T07:26:11.263Z,37.27
2023-05-23T07:28:51.008Z,37.52
2023-05-23T07:31:22.625Z,37.23
2023-05-23T07:33:59.033Z,37.63
2023-05-23T07:36:35.656Z,37.06
2023-05-23T07:39:09.298Z,37.19
2023-05-23T07:41:38.843Z,37.34
2023-05-23T07:44:10.051Z,37.51
2023-05-23T07:46:53.130Z,37.51
2023-05-23T07:49:26.184Z,37.04
2023-05-23T07:51:57.653Z,36.85
2023-05-23T07:54:27.262Z,36.90
2023-05-23T07:57:06.810Z,36.59
2023-05-23T07:59:36.750Z,37.11
2023-05-23T08:02:06.308Z,36.62
2023-05-23T08:04:43.054Z,36.48
2023-05-23T08:07:12.477Z,36.37
2023-05-23T08:10:01.589Z,36.81
2023-05-23T08:12:33.867Z,36.45
2023-05-23T08:15:11.496Z,36.53
2023-05-23T08:17:50.250Z,36.31
2023-05-23T08:20:30.038Z,35.93
2023-05-23T08:23:01.911Z,36.28
2023-05-23T08:25:31.839Z,35.45
2023-05-23T08:28:15.048Z,35.66
2023-05-23T08:30:50.178Z,35.57
2023-05-23T08:33:20.196Z,35.65
2023-05-23T08:35:50.757Z,35.36
2023-05-23T08:38:23.748Z,35.04
2023-05-23T08:41:23.184Z,34.61
2023-05-23T08:43:55.167Z,35.21
2023-05-23T08:46:30.309Z,34.89
2023-05-23T08:49:00.570Z,35.01
2023-05-23T08:51:31.368Z,34.35
2023-05-23T08:54:03.264Z,34.32
2023-05-23T08:56:40.753Z,34.26
2023-05-23T08:59:17.075Z,33.70
2023-05-23T09:01:58.234Z,33.65
2023-05-23T09:04:32.018Z,33.13
2023-05-23T09:07:06.821Z,33.10
2023-05-23T09:09:36.753Z,32.89
2023-05-23T09:12:09.932Z,32.36
2023-05-23T09:14:49.625Z,32.19
2023-05-23T09:17:24.043Z,32.08
2023-05-23T09:19:54.406Z,31.92
2023-05-23T09:22:51.464Z,31.37
2023-05-23T09:25:22.519Z,31.47
2023-05-23T09:27:54.534Z,31.35
2023-05-23T09:30:34.606Z,31.17
2023-05-23T09:33:09.667Z,31.18
2023-05-23T09:35:46.748Z,30.80
2023-05-23T09:38:20.798Z,30.74
2023-05-23T09:40:50.519Z,30.40
2023-05-23T09:43:25.639Z,30.40
2023-05-23T09:46:06.872Z,30.15
2023-05-23T09:48:35.785Z,30.18
2023-05-23T09:51:21.026Z,30.53
2023-05-23T09:53:51.690Z,30.33
2023-05-23T09:56:28.943Z,29.46
2023-05-23T09:59:01.200Z,29.68
2023-05-23T10:01:33.617Z,29.47
2023-05-23T10:04:10.824Z,29.17
2023-05-23T10:06:49.630Z,29.14
2023-05-23T10:09:25.151Z,29.19
2023-05-23T10:12:36.855Z,28.96
2023-05-23T10:15:10.021Z,29.15
2023-05-23T10:17:56.573Z,28.67
2023-05-23T10:20:31.847Z,28.33
2023-05-23T10:23:01.669Z,28.44
2023-05-23T10:25:30.789Z,28.44
2023-05-23T10:28:03.942Z,28.44
2023-05-23T10:30:44.389Z,28.49
2023-05-23T10:33:19.580Z,28.32
2023-05-23T10:35:59.649Z,28.33
2023-05-23T10:38:36.610Z,28.43
2023-05-23T10:41:19.032Z,28.16
2023-05-23T10:43:57.495Z,28.22
2023-05-23T10:46:57.015Z,28.12
2023-05-23T10:49:48.989Z,28.01
2023-05-23T10:52:19.001Z,27.79
2023-05-23T10:54:51.094Z,27.85
2023-05-23T10:57:27.218Z,28.09
2023-05-23T10:59:59.468Z,27.66
2023-05-23T11:02:32.090Z,27.23
2023-05-23T11:05:22.559Z,27.59
2023-05-23T11:08:17.405Z,27.59
2023-05-23T11:11:02.959Z,27.49
2023-05-23T11:13:56.444Z,27.54
2023-05-23T11:16:29.768Z,28.48
2023-05-23T11:19:27.609Z,28.07
2023-05-23T11:21:59.794Z,28.09
2023-05-23T11:24:51.144Z,27.85
2023-05-23T11:27:30.800Z,27.89
2023-05-23T11:30:01.311Z,27.94
2023-05-23T11:32:31.461Z,27.90
2023-05-23T11:35:05.581Z,27.82
2023-05-23T11:37:37.860Z,27.76
2023-05-23T11:40:29.556Z,27.92
2023-05-23T11:42:59.470Z,27.68
2023-05-23T11:45:31.884Z,27.50
2023-05-23T11:48:17.267Z,27.19
2023-05-23T11:50:50.933Z,27.36
2023-05-23T11:53:21.581Z,27.24
2023-05-23T11:55:54.906Z,27.19
2023-05-23T11:58:23.304Z,27.12
2023-05-23T12:00:55.060Z,27.29
2023-05-23T12:03:27.608Z,27.40
2023-05-23T12:05:57.838Z,27.11
2023-05-23T12:08:26.709Z,27.35
2023-05-23T12:10:58.982Z,27.28
2023-05-23T12:13:30.164Z,27.06
2023-05-23T12:16:01.664Z,27.27
2023-05-23T12:18:35.292Z,27.25
2023-05-23T12:21:08.142Z,27.24
2023-05-23T12:23:39.402Z,27.18
2023-05-23T12:26:12.778Z,26.84
2023-05-23T12:28:44.342Z,26.94
2023-05-23T12:31:17.809Z,26.78
2023-05-23T12:33:48.391Z,26.80
2023-05-23T12:36:24.004Z,26.77
2023-05-23T12:39:02.237Z,27.03
2023-05-23T12:41:32.590Z,27.07
2023-05-23T12:44:03.783Z,27.05
2023-05-23T12:46:32.854Z,27.03
2023-05-23T12:49:01.819Z,26.76
2023-05-23T12:51:33.089Z,27.28
2023-05-23T12:54:02.138Z,27.27
2023-05-23T12:56:32.188Z,27.38
2023-05-23T12:59:05.525Z,27.95
2023-05-23T13:01:40.827Z,27.59
2023-05-23T13:04:10.062Z,27.61
2023-05-23T13:06:39.460Z,27.54
2023-05-23T13:09:11.950Z,27.91
2023-05-23T13:11:42.117Z,27.38
2023-05-23T13:14:14.561Z,27.27
2023-05-23T13:16:47.432Z,27.21
2023-05-23T13:19:24.230Z,27.45
2023-05-23T13:21:53.960Z,27.60
2023-05-23T13:24:24.359Z,27.87
2023-05-23T13:26:53.748Z,27.65
2023-05-23T13:29:22.678Z,27.41
2023-05-23T13:31:55.121Z,27.58
2023-05-23T13:34:24.108Z,27.57
2023-05-23T13:36:53.200Z,27.64
2023-05-23T13:39:22.404Z,27.53
2023-05-23T13:41:53.794Z,27.41
2023-05-23T13:44:22.803Z,27.44
2023-05-23T13:47:12.527Z,27.52
2023-05-23T13:49:43.144Z,27.33
2023-05-23T13:52:15.341Z,27.44
2023-05-23T13:54:46.034Z,27.53
2023-05-23T13:57:15.183Z,27.53
2023-05-23T13:59:44.847Z,27.92
2023-05-23T14:02:13.891Z,27.43
2023-05-23T14:04:43.136Z,27.58
2023-05-23T14:07:14.416Z,27.42
2023-05-23T14:09:44.435Z,27.53
2023-05-23T14:12:13.434Z,27.48
2023-05-23T14:14:42.665Z,27.31
2023-05-23T14:17:21.411Z,27.28
2023-05-23T14:19:51.088Z,27.64
2023-05-23T14:22:22.212Z,27.38
2023-05-23T14:24:54.256Z,27.58
2023-05-23T14:27:23.915Z,27.71
2023-05-23T14:29:55.495Z,28.26
2023-05-23T14:32:24.452Z,27.73
2023-05-23T14:34:54.742Z,27.70
2023-05-23T14:37:23.566Z,27.76
2023-05-23T14:39:53.389Z,27.68
2023-05-23T14:42:25.110Z,28.02
2023-05-23T14:44:54.300Z,27.87
2023-05-23T14:47:23.138Z,27.48
2023-05-23T14:49:52.368Z,27.85
2023-05-23T14:52:24.510Z,27.85
2023-05-23T14:54:53.624Z,27.79
2023-05-23T14:57:25.508Z,27.97
2023-05-23T14:59:59.787Z,27.73
2023-05-23T15:02:29.410Z,27.98
2023-05-23T15:04:58.733Z,27.90
2023-05-23T15:07:28.087Z,27.78
2023-05-23T15:09:57.584Z,28.13
2023-05-23T15:12:32.680Z,27.94
2023-05-23T15:15:03.696Z,28.27
2023-05-23T15:17:33.842Z,28.24
2023-05-23T15:20:05.323Z,28.30
2023-05-23T15:22:40.467Z,28.75
2023-05-23T15:25:33.902Z,28.38
2023-05-23T15:28:15.571Z,28.31
2023-05-23T15:30:49.087Z,28.23
2023-05-23T15:33:23.043Z,28.21
2023-05-23T15:35:55.275Z,28.49
2023-05-23T15:38:24.361Z,28.62
2023-05-23T15:40:54.906Z,28.55
2023-05-23T15:43:25.713Z,28.59
2023-05-23T15:45:55.054Z,28.75
2023-05-23T15:48:24.212Z,28.51
2023-05-23T15:50:53.304Z,29.16
2023-05-23T15:53:25.397Z,29.21
2023-05-23T15:55:57.227Z,29.17
2023-05-23T15:58:32.452Z,28.84
2023-05-23T16:01:02.908Z,29.29
2023-05-23T16:03:34.678Z,28.82
2023-05-23T16:06:05.259Z,28.85
2023-05-23T16:08:37.015Z,29.04
2023-05-23T16:11:09.009Z,29.70
2023-05-23T16:13:40.577Z,29.38
2023-05-23T16:16:10.697Z,29.17
2023-05-23T16:18:40.815Z,29.67
2023-05-23T16:21:13.166Z,29.92
2023-05-23T16:23:42.081Z,29.72
2023-05-23T16:26:11.375Z,29.91
2023-05-23T16:28:43.251Z,29.67
2023-05-23T16:31:18.186Z,29.49
2023-05-23T16:33:47.108Z,29.68
2023-05-23T16:36:17.286Z,29.82
2023-05-23T16:38:46.633Z,30.42
2023-05-23T16:41:17.260Z,30.02
2023-05-23T16:43:48.844Z,30.33
2023-05-23T16:46:22.144Z,30.48
2023-05-23T16:51:37.710Z,30.14
2023-05-23T16:54:09.569Z,30.47
2023-05-23T16:56:41.004Z,31.06
2023-05-23T16:59:10.350Z,30.93
2023-05-23T17:01:57.092Z,30.94
2023-05-23T17:04:26.165Z,31.25
2023-05-23T17:06:55.259Z,32.03
2023-05-23T17:09:24.457Z,32.10
2023-05-23T17:11:56.453Z,31.93
2023-05-23T17:14:28.024Z,31.99
2023-05-23T17:16:57.010Z,32.45
2023-05-23T17:19:27.942Z,32.49
2023-05-23T17:21:58.533Z,32.57
2023-05-23T17:24:33.631Z,33.33
2023-05-23T17:27:03.939Z,33.52
2023-05-23T17:29:35.256Z,33.42
2023-05-23T17:32:09.568Z,33.73
2023-05-23T17:34:42.048Z,33.75
2023-05-23T17:37:12.680Z,34.01
2023-05-23T17:39:42.841Z,34.34
2023-05-23T17:42:15.266Z,34.58
2023-05-23T17:44:46.511Z,34.79
2023-05-23T17:47:18.278Z,34.89
2023-05-23T17:49:48.750Z,35.42
2023-05-23T17:52:19.073Z,35.68
2023-05-23T17:54:49.065Z,36.14
2023-05-23T17:57:22.984Z,36.39
2023-05-23T17:59:56.772Z,36.91
2023-05-23T18:02:27.586Z,36.85
2023-05-23T18:04:59.006Z,37.39
2023-05-23T18:07:28.277Z,37.62
2023-05-23T18:09:59.121Z,38.05
2023-05-23T18:12:28.456Z,38.29
2023-05-23T18:14:59.257Z,39.00
2023-05-23T18:17:29.947Z,38.96
2023-05-23T18:19:59.788Z,38.68
2023-05-23T18:22:32.797Z,39.45
2023-05-23T18:25:02.121Z,39.57
2023-05-23T18:27:37.121Z,39.51
2023-05-23T18:30:22.953Z,39.70
2023-05-23T18:33:01.614Z,39.87
2023-05-23T18:35:39.982Z,40.07
2023-05-23T18:38:14.899Z,40.45
2023-05-23T18:40:44.981Z,40.51
2023-05-23T18:43:20.627Z,40.70
2023-05-23T18:45:50.549Z,40.88
2023-05-23T18:48:27.898Z,41.16
2023-05-23T18:51:02.641Z,41.27
2023-05-23T18:53:33.807Z,41.33
2023-05-23T18:56:08.302Z,41.22
2023-05-23T18:58:38.809Z,41.36
2023-05-23T19:01:11.017Z,41.62
2023-05-23T19:03:40.758Z,41.84
2023-05-23T19:06:10.204Z,42.11
2023-05-23T19:08:41.883Z,42.45
2023-05-23T19:11:11.632Z,42.31
2023-05-23T19:13:40.812Z,42.61
2023-05-23T19:16:13.751Z,42.77
2023-05-23T19:18:42.773Z,43.16
2023-05-23T19:21:17.888Z,42.86
2023-05-23T19:23:48.554Z,43.37
2023-05-23T19:26:20.465Z,43.17
2023-05-23T19:28:50.528Z,43.47
2023-05-23T19:31:27.121Z,43.36
2023-05-23T19:33:57.689Z,43.55
2023-05-23T19:36:31.000Z,43.90
2023-05-23T19:39:00.167Z,44.04
2023-05-23T19:41:29.267Z,44.38
2023-05-23T19:43:58.037Z,44.06
2023-05-23T19:46:28.214Z,44.84
2023-05-23T19:48:57.435Z,44.62
2023-05-23T19:51:29.724Z,45.05
2023-05-23T19:53:58.889Z,45.12
2023-05-23T19:56:29.058Z,45.71
2023-05-23T19:58:58.147Z,45.46
2023-05-23T20:01:29.467Z,45.88
2023-05-23T20:03:58.342Z,46.03
2023-05-23T20:06:27.454Z,46.18
2023-05-23T20:08:56.484Z,45.75
2023-05-23T20:11:28.725Z,46.04
2023-05-23T20:14:00.600Z,46.19
2023-05-23T20:16:29.782Z,46.51
2023-05-23T20:18:59.199Z,46.27
2023-05-23T20:21:30.663Z,46.30
2023-05-23T20:24:02.151Z,46.52
2023-05-23T20:26:32.528Z,46.90
2023-05-23T20:29:09.321Z,46.76
2023-05-23T20:31:54.049Z,46.95
2023-05-23T20:34:23.467Z,47.07
2023-05-23T20:36:53.172Z,46.73
2023-05-23T20:39:23.612Z,47.08
2023-05-23T20:41:54.429Z,47.05
2023-05-23T20:44:23.315Z,47.02
2023-05-23T20:46:57.279Z,47.34
2023-05-23T20:49:26.479Z,47.04
2023-05-23T20:51:57.816Z,47.17
2023-05-23T20:54:27.655Z,47.25
2023-05-23T20:56:57.032Z,47.74
2023-05-23T20:59:25.953Z,47.77
2023-05-23T21:01:55.053Z,47.23
2023-05-23T21:04:28.267Z,47.76
2023-05-23T21:06:57.408Z,47.66
2023-05-23T21:09:26.320Z,47.77
2023-05-23T21:12:14.501Z,47.22
2023-05-23T21:14:44.774Z,47.47
2023-05-23T21:17:15.398Z,47.47
2023-05-23T21:19:46.056Z,47.46
2023-05-23T21:22:15.541Z,47.89
2023-05-23T21:24:54.046Z,47.53
2023-05-23T21:27:22.934Z,47.50
2023-05-23T21:29:52.258Z,48.25
2023-05-23T21:32:23.496Z,47.95
2023-05-23T21:34:52.694Z,48.04
2023-05-23T21:37:21.704Z,47.76
2023-05-23T21:39:52.337Z,48.11
2023-05-23T21:42:22.100Z,48.37
2023-05-23T21:44:53.831Z,48.29
2023-05-23T21:47:24.846Z,48.01
2023-05-23T21:49:54.243Z,48.46
2023-05-23T21:52:23.294Z,48.07
2023-05-23T21:54:52.260Z,48.09
2023-05-23T21:57:21.687Z,48.72
2023-05-23T21:59:50.554Z,48.79
2023-05-23T22:02:25.436Z,49.16
2023-05-23T22:04:54.619Z,48.59
2023-05-23T22:07:25.518Z,48.88
2023-05-23T22:09:55.767Z,49.13
2023-05-23T22:12:25.486Z,48.20
2023-05-23T22:14:55.133Z,48.50
2023-05-23T22:17:25.809Z,48.59
2023-05-23T22:19:56.753Z,48.37
2023-05-23T22:22:26.514Z,48.42
2023-05-23T22:24:55.320Z,48.16
2023-05-23T22:27:25.288Z,48.43
2023-05-23T22:29:54.625Z,48.51
2023-05-23T22:32:28.163Z,48.24
2023-05-23T22:34:58.505Z,48.45
2023-05-23T22:37:27.542Z,48.61
2023-05-23T22:39:57.592Z,47.98
2023-05-23T22:42:26.818Z,47.93
2023-05-23T22:44:56.233Z,48.40
2023-05-23T22:47:25.499Z,48.41
2023-05-23T22:49:56.023Z,47.83
2023-05-23T22:52:25.408Z,48.14
2023-05-23T22:54:54.969Z,47.98
2023-05-23T22:57:24.004Z,48.75
2023-05-23T22:59:55.482Z,48.56
2023-05-23T23:02:26.887Z,48.39
2023-05-23T23:04:57.212Z,48.61
2023-05-23T23:07:27.436Z,48.64
2023-05-23T23:09:56.849Z,48.44
2023-05-23T23:12:25.762Z,48.81
2023-05-23T23:14:57.658Z,48.01
2023-05-23T23:17:26.592Z,48.28
2023-05-23T23:20:00.190Z,48.33
2023-05-23T23:22:30.548Z,48.34
2023-05-23T23:25:02.150Z,48.51
2023-05-23T23:27:31.950Z,48.57
2023-05-23T23:30:00.957Z,48.73
2023-05-23T23:32:31.229Z,48.60
2023-05-23T23:35:01.524Z,48.54
2023-05-23T23:37:32.044Z,48.75
2023-05-23T23:40:00.780Z,48.86
2023-05-23T23:42:29.954Z,48.79
2023-05-23T23:44:59.162Z,48.17
2023-05-23T23:47:29.719Z,48.64
2023-05-23T23:50:00.564Z,48.80
2023-05-23T23:52:32.413Z,48.33
2023-05-23T23:55:01.683Z,48.58
2023-05-23T23:57:31.856Z,48.85
